Port Mellon, Canada
Current Conditions -  °F | °C
As of 5:00 AM on Friday 24 Oct 2014 (Local Time) from CYVR Reporting Station
Broken Clouds Broken Clouds  
Wind Chill: 46°   Ceiling: 3100
Heat Index: 48°   Visibility: 15mi
Dew Point: 46°   Wind: 6mph
Humidity: 93%   Direction: 70°ENE
Pressure: 30.03"   Gusts: NA
Location:  49.52°N, 123.48°W
Report Text: CYVR 241200Z 07005KT 15SM BKN031 BKN048 BKN120 09/08 A3003 RMK SC5SC1AC1 SLP169
Loading
Personal Weather Stations






























Interactive Weather Map
Tropical Storm Tracking
New forecast layout! Learn more

10-Day Weather Forecast

Advertisements
Track Severe Weather on mobile